sensor_id;sensor_type;location;lat;lon;timestamp;pressure;altitude;pressure_sealevel;temperature
68911;BMP180;55953;51.650;-0.522;2024-02-14T00:00:58;100197.40;;;11.52
68911;BMP180;55953;51.650;-0.522;2024-02-14T00:03:38;100192.80;;;11.54
68911;BMP180;55953;51.650;-0.522;2024-02-14T00:06:06;100197.00;;;11.54
68911;BMP180;55953;51.650;-0.522;2024-02-14T00:08:34;100189.80;;;11.60
68911;BMP180;55953;51.650;-0.522;2024-02-14T00:11:02;100193.60;;;11.60
68911;BMP180;55953;51.650;-0.522;2024-02-14T00:13:30;100202.20;;;11.60
68911;BMP180;55953;51.650;-0.522;2024-02-14T00:16:02;100201.80;;;11.60
68911;BMP180;55953;51.650;-0.522;2024-02-14T00:18:30;100195.00;;;11.60
68911;BMP180;55953;51.650;-0.522;2024-02-14T00:20:58;100191.60;;;11.60
68911;BMP180;55953;51.650;-0.522;2024-02-14T00:23:26;100192.20;;;11.60
68911;BMP180;55953;51.650;-0.522;2024-02-14T00:25:54;100200.60;;;11.60
68911;BMP180;55953;51.650;-0.522;2024-02-14T00:28:22;100197.00;;;11.66
68911;BMP180;55953;51.650;-0.522;2024-02-14T00:30:51;100205.20;;;11.68
68911;BMP180;55953;51.650;-0.522;2024-02-14T00:33:19;100206.00;;;11.64
68911;BMP180;55953;51.650;-0.522;2024-02-14T00:35:49;100212.20;;;11.60
68911;BMP180;55953;51.650;-0.522;2024-02-14T00:38:17;100213.00;;;11.60
68911;BMP180;55953;51.650;-0.522;2024-02-14T00:40:45;100208.80;;;11.60
68911;BMP180;55953;51.650;-0.522;2024-02-14T00:43:13;100207.80;;;11.64
68911;BMP180;55953;51.650;-0.522;2024-02-14T00:45:41;100214.00;;;11.64
68911;BMP180;55953;51.650;-0.522;2024-02-14T00:48:09;100214.20;;;11.60
68911;BMP180;55953;51.650;-0.522;2024-02-14T00:50:37;100218.40;;;11.62
68911;BMP180;55953;51.650;-0.522;2024-02-14T00:53:05;100217.80;;;11.60
68911;BMP180;55953;51.650;-0.522;2024-02-14T00:55:33;100215.60;;;11.60
68911;BMP180;55953;51.650;-0.522;2024-02-14T00:58:01;100214.20;;;11.60
68911;BMP180;55953;51.650;-0.522;2024-02-14T01:00:30;100215.20;;;11.60
68911;BMP180;55953;51.650;-0.522;2024-02-14T01:03:03;100216.80;;;11.60
68911;BMP180;55953;51.650;-0.522;2024-02-14T01:05:31;100210.40;;;11.64
68911;BMP180;55953;51.650;-0.522;2024-02-14T01:08:00;100214.00;;;11.60
68911;BMP180;55953;51.650;-0.522;2024-02-14T01:10:28;100214.40;;;11.60
68911;BMP180;55953;51.650;-0.522;2024-02-14T01:12:56;100215.60;;;11.60
68911;BMP180;55953;51.650;-0.522;2024-02-14T01:15:24;100214.80;;;11.60
68911;BMP180;55953;51.650;-0.522;2024-02-14T01:17:52;100219.60;;;11.60
68911;BMP180;55953;51.650;-0.522;2024-02-14T01:20:20;100218.20;;;11.68
68911;BMP180;55953;51.650;-0.522;2024-02-14T01:22:48;100209.60;;;11.68
68911;BMP180;55953;51.650;-0.522;2024-02-14T01:25:16;100214.60;;;11.70
68911;BMP180;55953;51.650;-0.522;2024-02-14T01:27:44;100219.00;;;11.70
68911;BMP180;55953;51.650;-0.522;2024-02-14T01:30:12;100219.60;;;11.70
68911;BMP180;55953;51.650;-0.522;2024-02-14T01:32:40;100213.80;;;11.70
68911;BMP180;55953;51.650;-0.522;2024-02-14T01:35:08;100210.40;;;11.70
68911;BMP180;55953;51.650;-0.522;2024-02-14T01:37:37;100218.60;;;11.70
68911;BMP180;55953;51.650;-0.522;2024-02-14T01:40:07;100221.80;;;11.70
68911;BMP180;55953;51.650;-0.522;2024-02-14T01:42:35;100223.40;;;11.70
68911;BMP180;55953;51.650;-0.522;2024-02-14T01:45:03;100225.40;;;11.70
68911;BMP180;55953;51.650;-0.522;2024-02-14T01:47:32;100223.40;;;11.70
68911;BMP180;55953;51.650;-0.522;2024-02-14T01:50:01;100221.80;;;11.70
68911;BMP180;55953;51.650;-0.522;2024-02-14T01:52:29;100226.00;;;11.72
68911;BMP180;55953;51.650;-0.522;2024-02-14T01:54:57;100228.80;;;11.76
68911;BMP180;55953;51.650;-0.522;2024-02-14T01:57:25;100230.60;;;11.80
68911;BMP180;55953;51.650;-0.522;2024-02-14T01:59:54;100224.80;;;11.80
68911;BMP180;55953;51.650;-0.522;2024-02-14T02:02:25;100232.80;;;11.80
68911;BMP180;55953;51.650;-0.522;2024-02-14T02:04:54;100227.40;;;11.80
68911;BMP180;55953;51.650;-0.522;2024-02-14T02:07:22;100224.20;;;11.80
68911;BMP180;55953;51.650;-0.522;2024-02-14T02:09:50;100223.40;;;11.80
68911;BMP180;55953;51.650;-0.522;2024-02-14T02:12:18;100226.00;;;11.80
68911;BMP180;55953;51.650;-0.522;2024-02-14T02:14:46;100222.40;;;11.80
68911;BMP180;55953;51.650;-0.522;2024-02-14T02:17:14;100232.60;;;11.80
68911;BMP180;55953;51.650;-0.522;2024-02-14T02:19:45;100236.20;;;11.80
68911;BMP180;55953;51.650;-0.522;2024-02-14T02:22:13;100237.20;;;11.80
68911;BMP180;55953;51.650;-0.522;2024-02-14T02:24:41;100238.60;;;11.82
68911;BMP180;55953;51.650;-0.522;2024-02-14T02:27:09;100239.80;;;11.80
68911;BMP180;55953;51.650;-0.522;2024-02-14T02:29:37;100238.00;;;11.82
68911;BMP180;55953;51.650;-0.522;2024-02-14T02:32:05;100234.00;;;11.84
68911;BMP180;55953;51.650;-0.522;2024-02-14T02:34:34;100231.20;;;11.90
68911;BMP180;55953;51.650;-0.522;2024-02-14T02:37:02;100228.60;;;11.90
68911;BMP180;55953;51.650;-0.522;2024-02-14T02:39:30;100230.20;;;11.90
68911;BMP180;55953;51.650;-0.522;2024-02-14T02:41:58;100226.60;;;11.90
68911;BMP180;55953;51.650;-0.522;2024-02-14T02:44:27;100232.60;;;11.90
68911;BMP180;55953;51.650;-0.522;2024-02-14T02:46:55;100231.20;;;11.90
68911;BMP180;55953;51.650;-0.522;2024-02-14T02:49:23;100232.20;;;11.90
68911;BMP180;55953;51.650;-0.522;2024-02-14T02:51:51;100225.00;;;11.92
68911;BMP180;55953;51.650;-0.522;2024-02-14T02:54:20;100223.40;;;12.00
68911;BMP180;55953;51.650;-0.522;2024-02-14T02:56:50;100217.40;;;12.00
68911;BMP180;55953;51.650;-0.522;2024-02-14T02:59:17;100214.60;;;12.00
68911;BMP180;55953;51.650;-0.522;2024-02-14T03:01:46;100214.00;;;12.00
68911;BMP180;55953;51.650;-0.522;2024-02-14T03:04:14;100211.00;;;12.00
68911;BMP180;55953;51.650;-0.522;2024-02-14T03:06:42;100214.40;;;12.00
68911;BMP180;55953;51.650;-0.522;2024-02-14T03:09:12;100214.80;;;12.00
68911;BMP180;55953;51.650;-0.522;2024-02-14T03:11:42;100216.20;;;12.04
68911;BMP180;55953;51.650;-0.522;2024-02-14T03:14:10;100216.40;;;12.10
68911;BMP180;55953;51.650;-0.522;2024-02-14T03:16:38;100214.40;;;12.10
68911;BMP180;55953;51.650;-0.522;2024-02-14T03:19:06;100216.40;;;12.10
68911;BMP180;55953;51.650;-0.522;2024-02-14T03:21:34;100212.80;;;12.10
68911;BMP180;55953;51.650;-0.522;2024-02-14T03:24:04;100216.80;;;12.10
68911;BMP180;55953;51.650;-0.522;2024-02-14T03:26:33;100207.40;;;12.10
68911;BMP180;55953;51.650;-0.522;2024-02-14T03:29:03;100209.20;;;12.10
68911;BMP180;55953;51.650;-0.522;2024-02-14T03:31:34;100204.40;;;12.10
68911;BMP180;55953;51.650;-0.522;2024-02-14T03:34:02;100210.40;;;12.10
68911;BMP180;55953;51.650;-0.522;2024-02-14T03:36:31;100207.40;;;12.10
68911;BMP180;55953;51.650;-0.522;2024-02-14T03:39:00;100202.00;;;12.12
68911;BMP180;55953;51.650;-0.522;2024-02-14T03:41:32;100210.00;;;12.20
68911;BMP180;55953;51.650;-0.522;2024-02-14T03:44:00;100210.00;;;12.12
68911;BMP180;55953;51.650;-0.522;2024-02-14T03:46:31;100204.00;;;12.20
68911;BMP180;55953;51.650;-0.522;2024-02-14T03:48:59;100208.80;;;12.18
68911;BMP180;55953;51.650;-0.522;2024-02-14T03:51:27;100205.20;;;12.18
68911;BMP180;55953;51.650;-0.522;2024-02-14T03:53:55;100205.80;;;12.18
68911;BMP180;55953;51.650;-0.522;2024-02-14T03:56:23;100206.00;;;12.16
68911;BMP180;55953;51.650;-0.522;2024-02-14T03:58:51;100208.40;;;12.16
68911;BMP180;55953;51.650;-0.522;2024-02-14T04:01:19;100206.80;;;12.20
68911;BMP180;55953;51.650;-0.522;2024-02-14T04:03:47;100196.20;;;12.20
68911;BMP180;55953;51.650;-0.522;2024-02-14T04:06:16;100193.60;;;12.20
68911;BMP180;55953;51.650;-0.522;2024-02-14T04:08:45;100200.40;;;12.20
68911;BMP180;55953;51.650;-0.522;2024-02-14T04:11:13;100205.80;;;12.14
68911;BMP180;55953;51.650;-0.522;2024-02-14T04:13:42;100206.00;;;12.20
68911;BMP180;55953;51.650;-0.522;2024-02-14T04:16:10;100214.20;;;12.20
68911;BMP180;55953;51.650;-0.522;2024-02-14T04:18:38;100207.80;;;12.20
68911;BMP180;55953;51.650;-0.522;2024-02-14T04:21:09;100210.40;;;12.20
68911;BMP180;55953;51.650;-0.522;2024-02-14T04:23:37;100212.20;;;12.20
68911;BMP180;55953;51.650;-0.522;2024-02-14T04:26:05;100211.00;;;12.20
68911;BMP180;55953;51.650;-0.522;2024-02-14T04:28:33;100209.20;;;12.20
68911;BMP180;55953;51.650;-0.522;2024-02-14T04:31:01;100200.60;;;12.16
68911;BMP180;55953;51.650;-0.522;2024-02-14T04:33:29;100212.20;;;12.16
68911;BMP180;55953;51.650;-0.522;2024-02-14T04:35:58;100220.20;;;12.18
68911;BMP180;55953;51.650;-0.522;2024-02-14T04:38:26;100217.20;;;12.16
68911;BMP180;55953;51.650;-0.522;2024-02-14T04:40:56;100213.20;;;12.20
68911;BMP180;55953;51.650;-0.522;2024-02-14T04:43:26;100210.00;;;12.20
68911;BMP180;55953;51.650;-0.522;2024-02-14T04:45:54;100215.80;;;12.20
68911;BMP180;55953;51.650;-0.522;2024-02-14T04:48:22;100215.40;;;12.20
68911;BMP180;55953;51.650;-0.522;2024-02-14T04:50:50;100215.60;;;12.20
68911;BMP180;55953;51.650;-0.522;2024-02-14T04:53:18;100214.40;;;12.20
68911;BMP180;55953;51.650;-0.522;2024-02-14T04:55:47;100225.80;;;12.20
68911;BMP180;55953;51.650;-0.522;2024-02-14T04:58:15;100226.00;;;12.20
68911;BMP180;55953;51.650;-0.522;2024-02-14T05:00:43;100221.20;;;12.20
68911;BMP180;55953;51.650;-0.522;2024-02-14T05:03:11;100218.00;;;12.20
68911;BMP180;55953;51.650;-0.522;2024-02-14T05:05:39;100225.00;;;12.20
68911;BMP180;55953;51.650;-0.522;2024-02-14T05:08:07;100227.60;;;12.20
68911;BMP180;55953;51.650;-0.522;2024-02-14T05:10:35;100229.00;;;12.20
68911;BMP180;55953;51.650;-0.522;2024-02-14T05:13:03;100222.40;;;12.20
68911;BMP180;55953;51.650;-0.522;2024-02-14T05:15:32;100231.60;;;12.20
68911;BMP180;55953;51.650;-0.522;2024-02-14T05:18:03;100227.60;;;12.20
68911;BMP180;55953;51.650;-0.522;2024-02-14T05:20:33;100226.60;;;12.14
68911;BMP180;55953;51.650;-0.522;2024-02-14T05:23:01;100230.20;;;12.10
68911;BMP180;55953;51.650;-0.522;2024-02-14T05:25:29;100231.40;;;12.16
68911;BMP180;55953;51.650;-0.522;2024-02-14T05:28:00;100237.00;;;12.10
68911;BMP180;55953;51.650;-0.522;2024-02-14T05:30:28;100232.80;;;12.10
68911;BMP180;55953;51.650;-0.522;2024-02-14T05:32:56;100227.60;;;12.10
68911;BMP180;55953;51.650;-0.522;2024-02-14T05:35:24;100233.40;;;12.10
68911;BMP180;55953;51.650;-0.522;2024-02-14T05:37:52;100237.40;;;12.20
68911;BMP180;55953;51.650;-0.522;2024-02-14T05:40:20;100236.20;;;12.18
68911;BMP180;55953;51.650;-0.522;2024-02-14T05:42:48;100236.60;;;12.16
68911;BMP180;55953;51.650;-0.522;2024-02-14T05:45:16;100236.40;;;12.14
68911;BMP180;55953;51.650;-0.522;2024-02-14T05:47:44;100229.00;;;12.16
68911;BMP180;55953;51.650;-0.522;2024-02-14T05:50:12;100232.20;;;12.14
68911;BMP180;55953;51.650;-0.522;2024-02-14T05:52:41;100230.00;;;12.10
68911;BMP180;55953;51.650;-0.522;2024-02-14T05:55:09;100230.40;;;12.10
68911;BMP180;55953;51.650;-0.522;2024-02-14T05:57:37;100230.40;;;12.10
68911;BMP180;55953;51.650;-0.522;2024-02-14T06:00:06;100230.00;;;12.10
68911;BMP180;55953;51.650;-0.522;2024-02-14T06:02:38;100225.20;;;12.10
68911;BMP180;55953;51.650;-0.522;2024-02-14T06:05:08;100217.80;;;12.10
68911;BMP180;55953;51.650;-0.522;2024-02-14T06:07:37;100219.40;;;12.10
68911;BMP180;55953;51.650;-0.522;2024-02-14T06:10:08;100222.00;;;12.10
68911;BMP180;55953;51.650;-0.522;2024-02-14T06:12:36;100218.20;;;12.10
68911;BMP180;55953;51.650;-0.522;2024-02-14T06:15:06;100225.80;;;12.10
68911;BMP180;55953;51.650;-0.522;2024-02-14T06:17:35;100227.80;;;12.10
68911;BMP180;55953;51.650;-0.522;2024-02-14T06:20:03;100228.60;;;12.10
68911;BMP180;55953;51.650;-0.522;2024-02-14T06:22:36;100235.00;;;12.10
68911;BMP180;55953;51.650;-0.522;2024-02-14T06:25:16;100235.20;;;12.10
68911;BMP180;55953;51.650;-0.522;2024-02-14T06:27:44;100241.60;;;12.10
68911;BMP180;55953;51.650;-0.522;2024-02-14T06:30:12;100242.20;;;12.14
68911;BMP180;55953;51.650;-0.522;2024-02-14T06:32:41;100243.00;;;12.12
68911;BMP180;55953;51.650;-0.522;2024-02-14T06:35:09;100244.40;;;12.10
68911;BMP180;55953;51.650;-0.522;2024-02-14T06:37:37;100242.00;;;12.10
68911;BMP180;55953;51.650;-0.522;2024-02-14T06:40:19;100237.80;;;12.10
68911;BMP180;55953;51.650;-0.522;2024-02-14T06:42:48;100241.00;;;12.10
68911;BMP180;55953;51.650;-0.522;2024-02-14T06:45:18;100249.00;;;12.10
68911;BMP180;55953;51.650;-0.522;2024-02-14T06:47:46;100247.60;;;12.10
68911;BMP180;55953;51.650;-0.522;2024-02-14T06:50:15;100254.20;;;12.10
68911;BMP180;55953;51.650;-0.522;2024-02-14T06:52:43;100258.00;;;12.10
68911;BMP180;55953;51.650;-0.522;2024-02-14T06:55:10;100252.20;;;12.10
68911;BMP180;55953;51.650;-0.522;2024-02-14T06:57:38;100248.60;;;12.10
68911;BMP180;55953;51.650;-0.522;2024-02-14T07:00:07;100251.20;;;12.10
68911;BMP180;55953;51.650;-0.522;2024-02-14T07:02:37;100261.60;;;12.10
68911;BMP180;55953;51.650;-0.522;2024-02-14T07:05:05;100264.40;;;12.10
68911;BMP180;55953;51.650;-0.522;2024-02-14T07:07:35;100261.60;;;12.10
68911;BMP180;55953;51.650;-0.522;2024-02-14T07:10:04;100265.40;;;12.10
68911;BMP180;55953;51.650;-0.522;2024-02-14T07:12:34;100263.60;;;12.10
68911;BMP180;55953;51.650;-0.522;2024-02-14T07:15:05;100261.60;;;12.10
68911;BMP180;55953;51.650;-0.522;2024-02-14T07:17:33;100253.20;;;12.10
68911;BMP180;55953;51.650;-0.522;2024-02-14T07:20:02;100252.40;;;12.10
68911;BMP180;55953;51.650;-0.522;2024-02-14T07:22:30;100256.40;;;12.10
68911;BMP180;55953;51.650;-0.522;2024-02-14T07:24:58;100268.60;;;12.10
68911;BMP180;55953;51.650;-0.522;2024-02-14T07:27:26;100276.40;;;12.10
68911;BMP180;55953;51.650;-0.522;2024-02-14T07:29:54;100279.40;;;12.10
68911;BMP180;55953;51.650;-0.522;2024-02-14T07:32:22;100280.60;;;12.10
68911;BMP180;55953;51.650;-0.522;2024-02-14T07:34:50;100271.80;;;12.10
68911;BMP180;55953;51.650;-0.522;2024-02-14T07:37:18;100275.40;;;12.12
68911;BMP180;55953;51.650;-0.522;2024-02-14T07:39:47;100277.80;;;12.10
68911;BMP180;55953;51.650;-0.522;2024-02-14T07:42:15;100275.60;;;12.18
68911;BMP180;55953;51.650;-0.522;2024-02-14T07:44:43;100281.80;;;12.20
68911;BMP180;55953;51.650;-0.522;2024-02-14T07:47:11;100284.80;;;12.20
68911;BMP180;55953;51.650;-0.522;2024-02-14T07:49:40;100281.00;;;12.20
68911;BMP180;55953;51.650;-0.522;2024-02-14T07:52:08;100272.80;;;12.16
68911;BMP180;55953;51.650;-0.522;2024-02-14T07:54:36;100279.40;;;12.18
68911;BMP180;55953;51.650;-0.522;2024-02-14T07:57:05;100283.40;;;12.14
68911;BMP180;55953;51.650;-0.522;2024-02-14T07:59:32;100281.80;;;12.20
68911;BMP180;55953;51.650;-0.522;2024-02-14T08:02:00;100279.80;;;12.20
68911;BMP180;55953;51.650;-0.522;2024-02-14T08:04:28;100282.60;;;12.20
68911;BMP180;55953;51.650;-0.522;2024-02-14T08:06:56;100289.60;;;12.20
68911;BMP180;55953;51.650;-0.522;2024-02-14T08:09:24;100286.80;;;12.20
68911;BMP180;55953;51.650;-0.522;2024-02-14T08:11:52;100285.40;;;12.28
68911;BMP180;55953;51.650;-0.522;2024-02-14T08:14:21;100279.40;;;12.30
68911;BMP180;55953;51.650;-0.522;2024-02-14T08:16:49;100282.40;;;12.30
68911;BMP180;55953;51.650;-0.522;2024-02-14T08:19:19;100293.20;;;12.30
68911;BMP180;55953;51.650;-0.522;2024-02-14T08:21:47;100280.80;;;12.30
68911;BMP180;55953;51.650;-0.522;2024-02-14T08:24:15;100295.20;;;12.36
68911;BMP180;55953;51.650;-0.522;2024-02-14T08:26:43;100297.40;;;12.40
68911;BMP180;55953;51.650;-0.522;2024-02-14T08:29:11;100289.00;;;12.40
68911;BMP180;55953;51.650;-0.522;2024-02-14T08:31:41;100293.00;;;12.40
68911;BMP180;55953;51.650;-0.522;2024-02-14T08:34:09;100290.00;;;12.40
68911;BMP180;55953;51.650;-0.522;2024-02-14T08:36:37;100290.20;;;12.40
68911;BMP180;55953;51.650;-0.522;2024-02-14T08:39:10;100289.00;;;12.42
68911;BMP180;55953;51.650;-0.522;2024-02-14T08:41:43;100288.40;;;12.42
68911;BMP180;55953;51.650;-0.522;2024-02-14T08:44:16;100290.20;;;12.50
68911;BMP180;55953;51.650;-0.522;2024-02-14T08:46:45;100279.80;;;12.50
68911;BMP180;55953;51.650;-0.522;2024-02-14T08:49:16;100283.40;;;12.60
68911;BMP180;55953;51.650;-0.522;2024-02-14T08:51:44;100287.80;;;12.60
68911;BMP180;55953;51.650;-0.522;2024-02-14T08:54:14;100283.20;;;12.60
68911;BMP180;55953;51.650;-0.522;2024-02-14T08:56:44;100291.60;;;12.62
68911;BMP180;55953;51.650;-0.522;2024-02-14T08:59:12;100291.00;;;12.70
68911;BMP180;55953;51.650;-0.522;2024-02-14T09:01:40;100286.40;;;12.70
68911;BMP180;55953;51.650;-0.522;2024-02-14T09:04:08;100291.20;;;12.70
68911;BMP180;55953;51.650;-0.522;2024-02-14T09:06:36;100291.20;;;12.70
68911;BMP180;55953;51.650;-0.522;2024-02-14T09:09:07;100296.40;;;12.74
68911;BMP180;55953;51.650;-0.522;2024-02-14T09:11:38;100291.80;;;12.80
68911;BMP180;55953;51.650;-0.522;2024-02-14T09:14:06;100290.20;;;12.76
68911;BMP180;55953;51.650;-0.522;2024-02-14T09:16:34;100289.80;;;12.76
68911;BMP180;55953;51.650;-0.522;2024-02-14T09:19:02;100298.80;;;12.80
68911;BMP180;55953;51.650;-0.522;2024-02-14T09:21:34;100298.40;;;12.80
68911;BMP180;55953;51.650;-0.522;2024-02-14T09:24:05;100291.00;;;12.80
68911;BMP180;55953;51.650;-0.522;2024-02-14T09:26:33;100289.40;;;12.88
68911;BMP180;55953;51.650;-0.522;2024-02-14T09:29:01;100294.20;;;12.90
68911;BMP180;55953;51.650;-0.522;2024-02-14T09:31:29;100295.40;;;12.90
68911;BMP180;55953;51.650;-0.522;2024-02-14T09:33:57;100286.80;;;12.90
68911;BMP180;55953;51.650;-0.522;2024-02-14T09:36:26;100295.80;;;12.90
68911;BMP180;55953;51.650;-0.522;2024-02-14T09:38:55;100298.20;;;12.90
68911;BMP180;55953;51.650;-0.522;2024-02-14T09:43:58;100314.20;;;13.00
68911;BMP180;55953;51.650;-0.522;2024-02-14T09:46:26;100317.00;;;13.00
68911;BMP180;55953;51.650;-0.522;2024-02-14T09:48:55;100315.20;;;13.00
68911;BMP180;55953;51.650;-0.522;2024-02-14T09:51:24;100313.80;;;13.00
68911;BMP180;55953;51.650;-0.522;2024-02-14T09:53:54;100317.20;;;13.00
68911;BMP180;55953;51.650;-0.522;2024-02-14T09:56:22;100314.80;;;13.00
68911;BMP180;55953;51.650;-0.522;2024-02-14T09:58:51;100309.80;;;13.00
68911;BMP180;55953;51.650;-0.522;2024-02-14T10:01:25;100308.40;;;13.00
68911;BMP180;55953;51.650;-0.522;2024-02-14T10:03:54;100306.20;;;13.00
68911;BMP180;55953;51.650;-0.522;2024-02-14T10:06:22;100303.80;;;13.00
68911;BMP180;55953;51.650;-0.522;2024-02-14T10:08:53;100305.00;;;13.00
68911;BMP180;55953;51.650;-0.522;2024-02-14T10:11:31;100317.40;;;13.10
68911;BMP180;55953;51.650;-0.522;2024-02-14T10:14:01;100323.20;;;13.06
68911;BMP180;55953;51.650;-0.522;2024-02-14T10:16:32;100331.60;;;13.00
68911;BMP180;55953;51.650;-0.522;2024-02-14T10:19:00;100329.40;;;13.00
68911;BMP180;55953;51.650;-0.522;2024-02-14T10:21:29;100333.80;;;13.10
68911;BMP180;55953;51.650;-0.522;2024-02-14T10:24:00;100335.40;;;13.10
68911;BMP180;55953;51.650;-0.522;2024-02-14T10:26:29;100335.80;;;13.10
68911;BMP180;55953;51.650;-0.522;2024-02-14T10:28:58;100331.00;;;13.00
68911;BMP180;55953;51.650;-0.522;2024-02-14T10:31:26;100332.80;;;13.00
68911;BMP180;55953;51.650;-0.522;2024-02-14T10:33:56;100342.60;;;13.00
68911;BMP180;55953;51.650;-0.522;2024-02-14T10:36:25;100338.80;;;13.00
68911;BMP180;55953;51.650;-0.522;2024-02-14T10:38:54;100346.40;;;13.00
68911;BMP180;55953;51.650;-0.522;2024-02-14T10:41:22;100345.40;;;13.00
68911;BMP180;55953;51.650;-0.522;2024-02-14T10:43:50;100347.40;;;13.10
68911;BMP180;55953;51.650;-0.522;2024-02-14T10:46:23;100337.40;;;13.10
68911;BMP180;55953;51.650;-0.522;2024-02-14T10:49:04;100333.40;;;13.20
68911;BMP180;55953;51.650;-0.522;2024-02-14T10:51:34;100326.40;;;13.20
68911;BMP180;55953;51.650;-0.522;2024-02-14T10:54:13;100326.60;;;13.26
68911;BMP180;55953;51.650;-0.522;2024-02-14T10:56:47;100334.80;;;13.30
68911;BMP180;55953;51.650;-0.522;2024-02-14T10:59:19;100340.80;;;13.30
68911;BMP180;55953;51.650;-0.522;2024-02-14T11:01:48;100349.00;;;13.40
68911;BMP180;55953;51.650;-0.522;2024-02-14T11:04:18;100353.60;;;13.40
68911;BMP180;55953;51.650;-0.522;2024-02-14T11:06:48;100348.00;;;13.40
68911;BMP180;55953;51.650;-0.522;2024-02-14T11:09:17;100348.20;;;13.46
68911;BMP180;55953;51.650;-0.522;2024-02-14T11:11:46;100350.80;;;13.42
68911;BMP180;55953;51.650;-0.522;2024-02-14T11:14:15;100358.00;;;13.50
68911;BMP180;55953;51.650;-0.522;2024-02-14T11:16:47;100368.20;;;13.60
68911;BMP180;55953;51.650;-0.522;2024-02-14T11:19:15;100367.80;;;13.60
68911;BMP180;55953;51.650;-0.522;2024-02-14T11:21:47;100378.60;;;13.60
68911;BMP180;55953;51.650;-0.522;2024-02-14T11:24:17;100381.00;;;13.70
68911;BMP180;55953;51.650;-0.522;2024-02-14T11:26:51;100372.40;;;13.70
68911;BMP180;55953;51.650;-0.522;2024-02-14T11:29:20;100360.00;;;13.78
68911;BMP180;55953;51.650;-0.522;2024-02-14T11:32:00;100364.80;;;13.88
68911;BMP180;55953;51.650;-0.522;2024-02-14T11:34:29;100367.60;;;14.00
68911;BMP180;55953;51.650;-0.522;2024-02-14T11:37:05;100367.00;;;14.00
68911;BMP180;55953;51.650;-0.522;2024-02-14T11:39:33;100367.00;;;14.00
68911;BMP180;55953;51.650;-0.522;2024-02-14T11:42:02;100369.60;;;14.10
68911;BMP180;55953;51.650;-0.522;2024-02-14T11:44:30;100370.60;;;14.10
68911;BMP180;55953;51.650;-0.522;2024-02-14T11:46:58;100383.00;;;14.10
68911;BMP180;55953;51.650;-0.522;2024-02-14T11:49:25;100377.80;;;14.02
68911;BMP180;55953;51.650;-0.522;2024-02-14T11:51:54;100387.00;;;14.00
68911;BMP180;55953;51.650;-0.522;2024-02-14T11:54:22;100388.00;;;14.00
68911;BMP180;55953;51.650;-0.522;2024-02-14T11:56:50;100383.80;;;14.00
68911;BMP180;55953;51.650;-0.522;2024-02-14T11:59:18;100376.60;;;14.00
68911;BMP180;55953;51.650;-0.522;2024-02-14T12:01:48;100379.80;;;13.96
68911;BMP180;55953;51.650;-0.522;2024-02-14T12:04:19;100387.00;;;14.00
68911;BMP180;55953;51.650;-0.522;2024-02-14T12:06:47;100382.60;;;14.00
68911;BMP180;55953;51.650;-0.522;2024-02-14T12:09:15;100382.60;;;14.00
68911;BMP180;55953;51.650;-0.522;2024-02-14T12:11:43;100381.60;;;14.00
68911;BMP180;55953;51.650;-0.522;2024-02-14T12:14:12;100379.60;;;14.00
68911;BMP180;55953;51.650;-0.522;2024-02-14T12:16:41;100373.00;;;14.10
68911;BMP180;55953;51.650;-0.522;2024-02-14T12:19:15;100376.40;;;14.10
68911;BMP180;55953;51.650;-0.522;2024-02-14T12:21:44;100369.60;;;14.18
68911;BMP180;55953;51.650;-0.522;2024-02-14T12:24:14;100373.60;;;14.20
68911;BMP180;55953;51.650;-0.522;2024-02-14T12:26:43;100382.00;;;14.20
68911;BMP180;55953;51.650;-0.522;2024-02-14T12:29:12;100379.00;;;14.20
68911;BMP180;55953;51.650;-0.522;2024-02-14T12:31:41;100372.80;;;14.20
68911;BMP180;55953;51.650;-0.522;2024-02-14T12:34:12;100370.60;;;14.20
68911;BMP180;55953;51.650;-0.522;2024-02-14T12:36:41;100371.00;;;14.30
68911;BMP180;55953;51.650;-0.522;2024-02-14T12:39:09;100364.80;;;14.30
68911;BMP180;55953;51.650;-0.522;2024-02-14T12:41:40;100363.00;;;14.40
68911;BMP180;55953;51.650;-0.522;2024-02-14T12:44:08;100355.80;;;14.50
68911;BMP180;55953;51.650;-0.522;2024-02-14T12:46:36;100355.40;;;14.58
68911;BMP180;55953;51.650;-0.522;2024-02-14T12:49:06;100354.80;;;14.62
68911;BMP180;55953;51.650;-0.522;2024-02-14T12:51:35;100355.60;;;14.80
68911;BMP180;55953;51.650;-0.522;2024-02-14T12:54:04;100363.60;;;14.80
68911;BMP180;55953;51.650;-0.522;2024-02-14T12:56:33;100366.80;;;14.80
68911;BMP180;55953;51.650;-0.522;2024-02-14T12:59:01;100363.60;;;14.84
68911;BMP180;55953;51.650;-0.522;2024-02-14T13:01:29;100362.20;;;14.80
68911;BMP180;55953;51.650;-0.522;2024-02-14T13:03:58;100362.40;;;14.80
68911;BMP180;55953;51.650;-0.522;2024-02-14T13:06:27;100359.40;;;14.80
68911;BMP180;55953;51.650;-0.522;2024-02-14T13:08:55;100349.60;;;14.84
68911;BMP180;55953;51.650;-0.522;2024-02-14T13:11:24;100348.80;;;14.86
68911;BMP180;55953;51.650;-0.522;2024-02-14T13:13:52;100347.80;;;14.80
68911;BMP180;55953;51.650;-0.522;2024-02-14T13:16:20;100353.80;;;14.78
68911;BMP180;55953;51.650;-0.522;2024-02-14T13:18:48;100350.00;;;14.76
68911;BMP180;55953;51.650;-0.522;2024-02-14T13:21:16;100350.80;;;14.80
68911;BMP180;55953;51.650;-0.522;2024-02-14T13:23:45;100349.20;;;14.80
68911;BMP180;55953;51.650;-0.522;2024-02-14T13:26:13;100347.00;;;14.90
68911;BMP180;55953;51.650;-0.522;2024-02-14T13:28:41;100346.40;;;14.90
68911;BMP180;55953;51.650;-0.522;2024-02-14T13:31:09;100351.00;;;15.00
68911;BMP180;55953;51.650;-0.522;2024-02-14T13:33:38;100352.20;;;14.92
68911;BMP180;55953;51.650;-0.522;2024-02-14T13:36:07;100354.00;;;14.90
68911;BMP180;55953;51.650;-0.522;2024-02-14T13:38:35;100362.20;;;14.80
68911;BMP180;55953;51.650;-0.522;2024-02-14T13:41:03;100364.60;;;14.70
68911;BMP180;55953;51.650;-0.522;2024-02-14T13:43:31;100360.00;;;14.70
68911;BMP180;55953;51.650;-0.522;2024-02-14T13:45:59;100360.00;;;14.60
68911;BMP180;55953;51.650;-0.522;2024-02-14T13:48:27;100360.80;;;14.50
68911;BMP180;55953;51.650;-0.522;2024-02-14T13:50:55;100364.40;;;14.50
68911;BMP180;55953;51.650;-0.522;2024-02-14T13:53:23;100362.00;;;14.50
68911;BMP180;55953;51.650;-0.522;2024-02-14T13:55:51;100356.80;;;14.50